Time,TemperatureF,DewpointF,PressureIn,WindDirection,WindDirectionDegrees,WindSpeedMPH,WindSpeedGustMPH,Humidity,HourlyPrecipIn,Conditions,Clouds,dailyrainin,SoftwareType,DateUTC
2013-01-28 00:00:00,24.7,21.6,24.00,North,0,0.0,-999.0,88,0.00,,,0.04,,2013-01-28 08:00:00,
2013-01-28 01:00:00,24.5,22.0,23.98,North,0,0.0,-999.0,90,0.00,,,0.04,,2013-01-28 09:00:00,
2013-01-28 02:00:00,24.5,22.7,23.99,North,0,0.0,-999.0,93,0.00,,,0.04,,2013-01-28 10:00:00,
2013-01-28 03:00:00,24.5,22.7,24.00,North,0,0.0,-999.0,93,0.00,,,0.04,,2013-01-28 11:00:00,
2013-01-28 04:00:00,24.1,22.6,23.98,North,0,0.0,-999.0,94,0.00,,,0.04,,2013-01-28 12:00:00,
2013-01-28 05:00:00,24.1,22.6,23.97,North,0,0.0,-999.0,94,0.00,,,0.02,,2013-01-28 13:00:00,
2013-01-28 06:00:00,23.6,22.1,23.98,North,0,0.0,-999.0,94,0.00,,,0.02,,2013-01-28 14:00:00,
2013-01-28 07:06:00,23.4,21.9,23.98,North,0,0.0,-999.0,94,0.00,,,0.02,,2013-01-28 15:06:00,
2013-01-28 08:00:00,23.4,21.9,24.01,North,0,0.0,-999.0,94,0.00,,,0.02,,2013-01-28 16:00:00,
2013-01-28 09:06:00,23.4,21.9,24.01,North,0,0.0,-999.0,94,0.00,,,0.02,,2013-01-28 17:06:00,
2013-01-28 10:00:00,25.0,23.5,24.04,North,0,0.0,-999.0,94,0.00,,,0.02,,2013-01-28 18:00:00,
2013-01-28 11:06:00,25.6,23.6,24.04,North,0,0.0,-999.0,92,0.00,,,0.02,,2013-01-28 19:06:00,
2013-01-28 12:00:00,25.6,23.3,24.06,North,0,0.0,-999.0,91,0.00,,,0.02,,2013-01-28 20:00:00,
2013-01-28 13:06:00,25.6,23.0,24.06,North,0,0.0,-999.0,90,0.00,,,0.02,,2013-01-28 21:06:00,
2013-01-28 14:00:00,24.8,22.3,24.06,North,0,0.0,-999.0,90,0.00,,,0.02,,2013-01-28 22:00:00,
2013-01-28 15:06:00,25.2,22.7,24.06,North,0,0.0,-999.0,90,0.00,,,0.02,,2013-01-28 23:06:00,
2013-01-28 16:00:00,25.4,23.1,24.07,North,0,0.0,-999.0,91,0.00,,,0.02,,2013-01-29 00:00:00,
2013-01-28 17:06:00,25.6,23.3,24.07,North,0,0.0,-999.0,91,0.00,,,0.02,,2013-01-29 01:06:00,
2013-01-28 18:00:00,25.6,23.3,24.09,North,0,0.0,-999.0,91,0.00,,,0.02,,2013-01-29 02:00:00,
2013-01-28 19:00:00,25.6,23.3,24.11,North,0,0.0,-999.0,91,0.00,,,0.02,,2013-01-29 03:00:00,
2013-01-28 20:00:00,25.6,23.3,24.11,North,0,0.0,-999.0,91,0.00,,,0.00,,2013-01-29 04:00:00,
2013-01-28 21:00:00,25.4,23.6,24.11,North,0,0.0,-999.0,93,0.00,,,0.00,,2013-01-29 05:00:00,
2013-01-28 22:00:00,25.4,23.1,24.11,North,0,0.0,-999.0,91,0.00,,,0.00,,2013-01-29 06:00:00,
2013-01-28 23:00:00,25.4,23.4,24.12,North,0,0.0,-999.0,92,0.00,,,0.00,,2013-01-29 07:00:00,